createdAt,value
2022-08-19T00:00:02.052Z,88.48
2022-08-19T00:01:02.024Z,88.48
2022-08-19T00:02:02.018Z,88.48
2022-08-19T00:03:02.120Z,88.98
2022-08-19T00:04:02.018Z,89.08
2022-08-19T00:05:02.036Z,89.18
2022-08-19T00:06:01.969Z,88.88
2022-08-19T00:07:02.007Z,88.78
2022-08-19T00:08:01.982Z,88.98
2022-08-19T00:09:01.992Z,89.18
2022-08-19T00:10:01.928Z,88.98
2022-08-19T00:11:01.913Z,88.92
2022-08-19T00:12:01.906Z,89.23
2022-08-19T00:13:01.892Z,89.12
2022-08-19T00:14:01.896Z,89.23
2022-08-19T00:15:01.881Z,89.59
2022-08-19T00:16:01.867Z,89.28
2022-08-19T00:17:01.846Z,89.69
2022-08-19T00:18:01.845Z,90.19
2022-08-19T00:19:01.837Z,89.48
2022-08-19T00:20:01.829Z,89.18
2022-08-19T00:21:01.812Z,89.12
2022-08-19T00:22:01.802Z,89.08
2022-08-19T00:23:01.779Z,89.12
2022-08-19T00:24:01.796Z,88.92
2022-08-19T00:25:02.188Z,89.43
2022-08-19T00:26:01.748Z,89.03
2022-08-19T00:27:24.840Z,88.42
2022-08-19T00:28:02.733Z,89.03
2022-08-19T00:29:01.717Z,88.82
2022-08-19T00:30:01.754Z,88.86
2022-08-19T00:31:01.695Z,89.06
2022-08-19T00:32:01.687Z,89.17
2022-08-19T00:33:01.673Z,89.03
2022-08-19T00:34:01.673Z,89.26
2022-08-19T00:35:01.666Z,89.26
2022-08-19T00:36:01.643Z,89.37
2022-08-19T00:37:01.627Z,89.47
2022-08-19T00:38:01.623Z,89.57
2022-08-19T00:39:01.611Z,89.67
2022-08-19T00:40:01.719Z,89.87
2022-08-19T00:41:01.600Z,89.57
2022-08-19T00:42:01.576Z,89.37
2022-08-19T00:43:01.567Z,89.37
2022-08-19T00:44:01.556Z,88.96
2022-08-19T00:45:01.542Z,90.37
2022-08-19T00:46:01.560Z,90.07
2022-08-19T00:47:01.522Z,90.07
2022-08-19T00:48:01.510Z,89.97
2022-08-19T00:49:01.509Z,89.77
2022-08-19T00:50:01.519Z,90.28
2022-08-19T00:51:01.474Z,89.97
2022-08-19T00:52:01.463Z,89.77
2022-08-19T00:53:01.466Z,90.37
2022-08-19T00:54:01.439Z,89.97
2022-08-19T00:55:01.428Z,90.37
2022-08-19T00:56:01.436Z,90.07
2022-08-19T00:57:01.403Z,89.87
2022-08-19T00:58:01.397Z,89.51
2022-08-19T00:59:01.395Z,89.61
2022-08-19T01:00:03.140Z,89.81
2022-08-19T01:01:01.360Z,89.61
2022-08-19T01:02:01.363Z,90.22
2022-08-19T01:03:01.336Z,89.71
2022-08-19T01:04:01.330Z,90.42
2022-08-19T01:05:01.331Z,90.22
2022-08-19T01:06:01.325Z,90.11
2022-08-19T01:07:01.294Z,89.61
2022-08-19T01:08:01.306Z,89.11
2022-08-19T01:09:01.269Z,89.21
2022-08-19T01:10:01.268Z,89.41
2022-08-19T01:11:01.259Z,89.71
2022-08-19T01:12:01.243Z,90.22
2022-08-19T01:13:01.239Z,90.32
2022-08-19T01:14:01.233Z,90.01
2022-08-19T01:15:01.214Z,89.91
2022-08-19T01:16:01.202Z,90.22
2022-08-19T01:17:01.193Z,90.82
2022-08-19T01:18:01.212Z,89.91
2022-08-19T01:19:01.172Z,90.62
2022-08-19T01:20:01.198Z,90.52
2022-08-19T01:21:01.139Z,90.52
2022-08-19T01:22:01.136Z,90.16
2022-08-19T01:23:02.127Z,91.02
2022-08-19T01:24:01.164Z,91.22
2022-08-19T01:25:01.089Z,91.02
2022-08-19T01:26:01.083Z,91.02
2022-08-19T01:27:01.069Z,91.13
2022-08-19T01:28:10.617Z,90.92
2022-08-19T01:29:02.166Z,91.33
2022-08-19T01:30:01.047Z,90.32
2022-08-19T01:31:01.024Z,90.82
2022-08-19T01:32:02.056Z,90.11
2022-08-19T01:33:01.005Z,90.42
2022-08-19T01:34:00.994Z,90.36
2022-08-19T01:35:00.984Z,89.65
2022-08-19T01:36:00.980Z,90.36
2022-08-19T01:37:00.955Z,90.66
2022-08-19T01:38:00.964Z,90.46
2022-08-19T01:39:00.942Z,90.46
2022-08-19T01:40:00.940Z,90.66
2022-08-19T01:41:00.931Z,90.26
2022-08-19T01:42:00.910Z,90.66
2022-08-19T01:43:00.905Z,90.66
2022-08-19T01:44:16.978Z,91.27
2022-08-19T01:45:01.873Z,91.27
2022-08-19T01:46:00.864Z,90.32
2022-08-19T01:47:00.864Z,90.56
2022-08-19T01:48:01.870Z,90.56
2022-08-19T01:49:00.850Z,90.46
2022-08-19T01:50:00.844Z,90.66
2022-08-19T01:51:00.809Z,90.26
2022-08-19T01:52:00.791Z,90.26
2022-08-19T01:53:06.147Z,90.26
2022-08-19T01:54:01.781Z,89.95
2022-08-19T01:55:00.773Z,90.46
2022-08-19T01:56:00.749Z,90.26
2022-08-19T01:57:00.737Z,90.26
2022-08-19T01:58:00.725Z,90.50
2022-08-19T01:59:00.721Z,90.61
2022-08-19T02:00:00.703Z,90.56
2022-08-19T02:01:00.760Z,90.46
2022-08-19T02:02:00.692Z,90.56
2022-08-19T02:03:00.677Z,90.50
2022-08-19T02:04:00.656Z,90.30
2022-08-19T02:05:00.658Z,90.61
2022-08-19T02:06:00.632Z,90.50
2022-08-19T02:07:00.630Z,90.50
2022-08-19T02:08:00.613Z,90.50
2022-08-19T02:09:00.598Z,90.61
2022-08-19T02:10:00.603Z,90.91
2022-08-19T02:11:00.588Z,90.50
2022-08-19T02:12:00.571Z,90.50
2022-08-19T02:13:00.582Z,90.66
2022-08-19T02:14:00.560Z,91.47
2022-08-19T02:15:00.560Z,90.97
2022-08-19T02:16:00.519Z,90.46
2022-08-19T02:17:00.521Z,90.30
2022-08-19T02:18:00.525Z,90.36
2022-08-19T02:19:00.488Z,90.77
2022-08-19T02:20:00.510Z,90.46
2022-08-19T02:21:00.502Z,90.46
2022-08-19T02:22:00.459Z,90.61
2022-08-19T02:23:00.449Z,90.56
2022-08-19T02:24:00.437Z,90.46
2022-08-19T02:25:00.434Z,90.70
2022-08-19T02:26:00.428Z,90.56
2022-08-19T02:27:00.396Z,90.50
2022-08-19T02:28:00.403Z,90.61
2022-08-19T02:29:00.373Z,90.81
2022-08-19T02:30:00.379Z,90.20
2022-08-19T02:31:00.367Z,90.10
2022-08-19T02:32:00.358Z,90.81
2022-08-19T02:33:00.336Z,90.61
2022-08-19T02:34:00.326Z,90.30
2022-08-19T02:35:00.322Z,90.50
2022-08-19T02:36:00.314Z,90.50
2022-08-19T02:37:03.574Z,90.50
2022-08-19T02:38:00.283Z,90.81
2022-08-19T02:39:00.263Z,90.61
2022-08-19T02:40:00.385Z,90.50
2022-08-19T02:41:00.245Z,90.50
2022-08-19T02:42:00.235Z,90.65
2022-08-19T02:43:00.223Z,90.61
2022-08-19T02:44:26.274Z,90.81
2022-08-19T02:45:01.285Z,90.65
2022-08-19T02:46:00.187Z,90.41
2022-08-19T02:47:00.198Z,90.41
2022-08-19T02:48:00.186Z,90.75
2022-08-19T02:49:00.152Z,90.30
2022-08-19T02:50:00.150Z,90.61
2022-08-19T02:51:00.151Z,90.55
2022-08-19T02:52:00.124Z,90.91
2022-08-19T02:53:00.113Z,91.35
2022-08-19T02:54:00.111Z,90.85
2022-08-19T02:55:00.082Z,91.55
2022-08-19T02:56:00.126Z,91.05
2022-08-19T02:57:01.042Z,90.75
2022-08-19T02:58:00.067Z,90.75
2022-08-19T02:59:00.044Z,90.55
2022-08-19T03:00:00.043Z,90.45
2022-08-19T03:01:00.036Z,90.55
2022-08-19T03:02:00.018Z,90.55
2022-08-19T03:02:59.992Z,90.45
2022-08-19T03:03:59.991Z,90.85
2022-08-19T03:04:59.980Z,90.75
2022-08-19T03:05:59.969Z,90.59
2022-08-19T03:07:10.874Z,90.89
2022-08-19T03:08:00.945Z,91.05
2022-08-19T03:08:59.933Z,90.65
2022-08-19T03:09:59.929Z,90.85
2022-08-19T03:10:59.901Z,90.95
2022-08-19T03:11:59.921Z,90.85
2022-08-19T03:12:59.878Z,91.15
2022-08-19T03:13:59.872Z,91.15
2022-08-19T03:14:59.860Z,91.46
2022-08-19T03:15:59.865Z,91.25
2022-08-19T03:16:59.870Z,90.34
2022-08-19T03:17:59.824Z,90.69
2022-08-19T03:18:59.816Z,90.85
2022-08-19T03:19:59.804Z,90.34
2022-08-19T03:20:59.790Z,90.75
2022-08-19T03:21:59.782Z,91.15
2022-08-19T03:22:59.782Z,91.30
2022-08-19T03:23:59.764Z,91.39
2022-08-19T03:24:59.760Z,91.15
2022-08-19T03:26:16.183Z,91.15
2022-08-19T03:27:00.722Z,90.95
2022-08-19T03:27:59.728Z,91.35
2022-08-19T03:28:59.730Z,90.69
2022-08-19T03:30:00.720Z,91.19
2022-08-19T03:30:59.678Z,91.70
2022-08-19T03:31:59.705Z,91.19
2022-08-19T03:32:59.746Z,91.09
2022-08-19T03:33:59.666Z,91.30
2022-08-19T03:34:59.636Z,91.19
2022-08-19T03:35:59.628Z,91.30
2022-08-19T03:36:59.631Z,91.19
2022-08-19T03:37:59.605Z,91.19
2022-08-19T03:39:00.059Z,91.30
2022-08-19T03:39:59.608Z,91.70
2022-08-19T03:40:59.569Z,91.50
2022-08-19T03:42:33.166Z,91.80
2022-08-19T03:43:00.927Z,91.39
2022-08-19T03:43:59.541Z,91.39
2022-08-19T03:44:59.527Z,91.60
2022-08-19T03:45:59.510Z,91.30
2022-08-19T03:46:59.504Z,91.54
2022-08-19T03:47:59.505Z,91.34
2022-08-19T03:48:59.512Z,91.39
2022-08-19T03:49:59.467Z,91.34
2022-08-19T03:50:59.459Z,91.54
2022-08-19T03:51:59.444Z,91.74
2022-08-19T03:52:59.435Z,91.34
2022-08-19T03:53:59.437Z,91.85
2022-08-19T03:54:59.421Z,91.69
2022-08-19T03:55:59.399Z,92.80
2022-08-19T03:56:59.391Z,92.09
2022-08-19T03:57:59.492Z,92.60
2022-08-19T03:58:59.379Z,93.10
2022-08-19T04:00:12.710Z,92.80
2022-08-19T04:01:00.399Z,92.60
2022-08-19T04:01:59.338Z,92.80
2022-08-19T04:03:00.871Z,92.19
2022-08-19T04:03:59.327Z,92.60
2022-08-19T04:04:59.328Z,92.09
2022-08-19T04:05:59.297Z,91.49
2022-08-19T04:06:59.279Z,91.58
2022-08-19T04:07:59.263Z,91.78
2022-08-19T04:08:59.274Z,92.09
2022-08-19T04:09:59.253Z,92.09
2022-08-19T04:10:59.258Z,92.09
2022-08-19T04:11:59.223Z,91.78
2022-08-19T04:12:59.234Z,91.58
2022-08-19T04:13:59.197Z,91.38
2022-08-19T04:14:59.211Z,91.58
2022-08-19T04:15:59.192Z,91.38
2022-08-19T04:16:59.170Z,91.38
2022-08-19T04:17:59.160Z,91.28
2022-08-19T04:18:59.144Z,91.49
2022-08-19T04:19:59.150Z,91.28
2022-08-19T04:20:59.124Z,91.49
2022-08-19T04:21:59.113Z,91.58
2022-08-19T04:22:59.103Z,91.38
2022-08-19T04:23:59.085Z,91.44
2022-08-19T04:24:59.089Z,91.49
2022-08-19T04:25:59.063Z,91.49
2022-08-19T04:26:59.058Z,91.44
2022-08-19T04:27:59.049Z,91.28
2022-08-19T04:28:59.045Z,91.44
2022-08-19T04:29:59.043Z,91.34
2022-08-19T04:30:59.010Z,91.78
2022-08-19T04:31:58.997Z,91.58
2022-08-19T04:32:58.991Z,91.64
2022-08-19T04:33:58.972Z,91.64
2022-08-19T04:35:02.298Z,91.74
2022-08-19T04:35:59.963Z,91.44
2022-08-19T04:36:58.943Z,91.54
2022-08-19T04:37:58.930Z,91.94
2022-08-19T04:38:58.922Z,92.05
2022-08-19T04:39:58.952Z,92.05
2022-08-19T04:40:58.907Z,92.14
2022-08-19T04:41:58.883Z,91.94
2022-08-19T04:42:58.883Z,92.55
2022-08-19T04:44:02.515Z,92.25
2022-08-19T04:45:00.080Z,92.55
2022-08-19T04:46:00.754Z,92.45
2022-08-19T04:46:58.848Z,92.05
2022-08-19T04:48:26.336Z,92.14
2022-08-19T04:48:59.820Z,92.30
2022-08-19T04:49:59.794Z,92.45
2022-08-19T04:50:58.807Z,92.25
2022-08-19T04:51:58.771Z,92.21
2022-08-19T04:52:58.767Z,92.71
2022-08-19T04:53:58.752Z,92.65
2022-08-19T04:54:58.742Z,92.50
2022-08-19T04:55:58.745Z,92.61
2022-08-19T04:56:58.722Z,92.81
2022-08-19T04:57:58.720Z,92.71
2022-08-19T04:58:58.697Z,93.01
2022-08-19T04:59:58.697Z,93.01
2022-08-19T05:00:58.740Z,92.30
2022-08-19T05:01:58.687Z,92.50
2022-08-19T05:02:58.659Z,92.66
2022-08-19T05:03:58.647Z,92.81
2022-08-19T05:04:58.633Z,92.66
2022-08-19T05:05:58.625Z,92.86
2022-08-19T05:07:00.779Z,92.86
2022-08-19T05:07:58.633Z,92.86
2022-08-19T05:08:58.592Z,92.66
2022-08-19T05:09:59.271Z,92.02
2022-08-19T05:10:58.568Z,92.46
2022-08-19T05:11:58.556Z,92.32
2022-08-19T05:12:58.577Z,92.06
2022-08-19T05:13:58.534Z,91.91
2022-08-19T05:14:58.533Z,92.12
2022-08-19T05:15:58.616Z,91.82
2022-08-19T05:17:23.643Z,91.91
2022-08-19T05:17:59.495Z,92.22
2022-08-19T05:18:58.478Z,92.42
2022-08-19T05:19:58.458Z,92.22
2022-08-19T05:20:58.452Z,92.42
2022-08-19T05:21:58.442Z,92.32
2022-08-19T05:22:58.460Z,92.32
2022-08-19T05:23:58.422Z,92.22
2022-08-19T05:25:12.261Z,92.32
2022-08-19T05:25:59.476Z,92.32
2022-08-19T05:26:58.384Z,92.12
2022-08-19T05:27:58.366Z,91.82
2022-08-19T05:28:58.388Z,92.02
2022-08-19T05:29:58.351Z,92.22
2022-08-19T05:30:58.343Z,92.27
2022-08-19T05:31:58.354Z,92.18
2022-08-19T05:32:58.333Z,92.27
2022-08-19T05:33:58.333Z,92.18
2022-08-19T05:34:58.307Z,92.38
2022-08-19T05:35:58.278Z,92.18
2022-08-19T05:36:58.272Z,92.18
2022-08-19T05:37:58.984Z,91.83
2022-08-19T05:38:58.255Z,91.22
2022-08-19T05:39:58.307Z,91.47
2022-08-19T05:40:58.238Z,91.22
2022-08-19T05:41:58.211Z,91.22
2022-08-19T05:42:58.206Z,91.33
2022-08-19T05:43:58.190Z,91.42
2022-08-19T05:44:58.208Z,91.42
2022-08-19T05:45:58.175Z,90.98
2022-08-19T05:46:58.161Z,91.49
2022-08-19T05:47:58.149Z,91.28
2022-08-19T05:48:58.145Z,91.18
2022-08-19T05:49:58.142Z,90.94
2022-08-19T05:50:58.114Z,90.84
2022-08-19T05:51:58.110Z,90.94
2022-08-19T05:52:58.214Z,90.29
2022-08-19T05:53:58.098Z,90.29
2022-08-19T05:54:58.074Z,89.84
2022-08-19T05:55:58.072Z,90.15
2022-08-19T05:56:58.049Z,89.40
2022-08-19T05:57:58.028Z,89.10
2022-08-19T05:58:58.344Z,88.85
2022-08-19T05:59:59.033Z,88.75
2022-08-19T06:00:58.019Z,88.51
2022-08-19T06:01:58.020Z,88.21
2022-08-19T06:02:58.037Z,87.57
2022-08-19T06:03:57.972Z,88.07
2022-08-19T06:04:57.972Z,87.46
2022-08-19T06:05:57.948Z,86.86
2022-08-19T06:06:57.934Z,87.02
2022-08-19T06:07:57.924Z,86.72
2022-08-19T06:08:57.925Z,86.58
2022-08-19T06:10:00.373Z,86.78
2022-08-19T06:10:57.900Z,85.83
2022-08-19T06:11:57.880Z,84.99
2022-08-19T06:12:57.870Z,85.10
2022-08-19T06:14:00.254Z,84.65
2022-08-19T06:15:00.635Z,84.05
2022-08-19T06:15:57.849Z,83.71
2022-08-19T06:16:57.824Z,82.77
2022-08-19T06:17:57.811Z,82.63
2022-08-19T06:18:57.804Z,81.63
2022-08-19T06:19:57.790Z,80.39
2022-08-19T06:20:57.798Z,79.89
2022-08-19T06:21:57.774Z,79.55
2022-08-19T06:22:57.758Z,78.52
2022-08-19T06:23:57.749Z,78.22
2022-08-19T06:24:57.737Z,77.58
2022-08-19T06:25:57.741Z,76.95
2022-08-19T06:27:00.801Z,76.31
2022-08-19T06:28:14.663Z,76.31
2022-08-19T06:28:58.700Z,76.07
2022-08-19T06:29:57.679Z,75.44
2022-08-19T06:30:57.681Z,74.60
2022-08-19T06:31:57.681Z,75.10
2022-08-19T06:32:57.656Z,74.07
2022-08-19T06:33:57.642Z,73.68
2022-08-19T06:34:57.636Z,73.64
2022-08-19T06:35:57.613Z,72.85
2022-08-19T06:36:57.611Z,72.71
2022-08-19T06:37:57.911Z,72.08
2022-08-19T06:38:57.620Z,71.58
2022-08-19T06:39:57.617Z,71.88
2022-08-19T06:40:57.561Z,71.68
2022-08-19T06:41:58.956Z,71.58
2022-08-19T06:42:57.905Z,71.55
2022-08-19T06:43:57.552Z,71.15
2022-08-19T06:44:57.541Z,71.01
2022-08-19T06:45:57.531Z,70.72
2022-08-19T06:46:57.506Z,71.01
2022-08-19T06:47:57.485Z,71.25
2022-08-19T06:48:57.476Z,70.42
2022-08-19T06:50:02.847Z,71.11
2022-08-19T06:50:58.463Z,71.31
2022-08-19T06:51:57.525Z,70.88
2022-08-19T06:52:57.436Z,70.48
2022-08-19T06:53:57.417Z,70.58
2022-08-19T06:54:59.684Z,70.48
2022-08-19T06:55:57.395Z,70.09
2022-08-19T06:56:57.494Z,69.79
2022-08-19T06:57:57.390Z,69.99
2022-08-19T06:58:57.365Z,70.48
2022-08-19T06:59:57.352Z,70.39
2022-08-19T07:00:57.356Z,70.88
2022-08-19T07:01:57.333Z,70.39
2022-08-19T07:03:00.878Z,70.98
2022-08-19T07:03:58.429Z,71.01
2022-08-19T07:04:57.310Z,70.72
2022-08-19T07:05:57.305Z,71.01
2022-08-19T07:06:57.301Z,71.81
2022-08-19T07:07:59.715Z,71.37
2022-08-19T07:08:58.264Z,70.92
2022-08-19T07:09:59.131Z,71.28
2022-08-19T07:10:57.264Z,71.22
2022-08-19T07:11:57.268Z,70.09
2022-08-19T07:12:57.219Z,70.92
2022-08-19T07:13:57.229Z,70.75
2022-08-19T07:14:57.196Z,71.84
2022-08-19T07:15:57.225Z,72.38
2022-08-19T07:16:57.191Z,72.47
2022-08-19T07:17:57.161Z,73.07
2022-08-19T07:18:57.159Z,72.47
2022-08-19T07:19:57.141Z,72.08
2022-08-19T07:20:57.141Z,73.11
2022-08-19T07:21:57.143Z,74.00
2022-08-19T07:22:58.128Z,73.70
2022-08-19T07:23:57.113Z,73.70
2022-08-19T07:24:57.112Z,73.60
2022-08-19T07:25:57.134Z,73.94
2022-08-19T07:26:57.083Z,74.40
2022-08-19T07:27:57.232Z,74.80
2022-08-19T07:28:57.076Z,74.69
2022-08-19T07:29:57.527Z,73.80
2022-08-19T07:30:57.027Z,73.60
2022-08-19T07:31:57.040Z,73.70
2022-08-19T07:32:57.009Z,73.67
2022-08-19T07:33:56.990Z,73.57
2022-08-19T07:34:57.248Z,73.27
2022-08-19T07:35:57.003Z,72.58
2022-08-19T07:36:56.966Z,73.11
2022-08-19T07:37:56.966Z,72.08
2022-08-19T07:38:56.945Z,72.91
2022-08-19T07:39:56.986Z,73.67
2022-08-19T07:40:56.935Z,74.00
2022-08-19T07:41:56.903Z,73.50
2022-08-19T07:42:56.907Z,73.77
2022-08-19T07:43:56.885Z,73.67
2022-08-19T07:44:56.877Z,73.97
2022-08-19T07:45:56.899Z,73.77
2022-08-19T07:46:56.851Z,73.63
2022-08-19T07:47:56.848Z,73.63
2022-08-19T07:48:56.827Z,73.43
2022-08-19T07:49:56.816Z,73.33
2022-08-19T07:50:56.812Z,73.60
2022-08-19T07:51:56.796Z,72.60
2022-08-19T07:52:56.838Z,71.61
2022-08-19T07:53:56.776Z,71.88
2022-08-19T07:54:56.760Z,71.22
2022-08-19T07:55:56.756Z,71.81
2022-08-19T07:56:56.747Z,71.51
2022-08-19T07:57:56.733Z,71.81
2022-08-19T07:59:56.712Z,71.41
2022-08-19T08:00:56.695Z,71.51
2022-08-19T08:01:56.779Z,71.67
2022-08-19T08:02:56.758Z,70.78
2022-08-19T08:03:56.668Z,70.98
2022-08-19T08:04:56.656Z,70.42
2022-08-19T08:05:56.653Z,70.39
2022-08-19T08:06:56.656Z,71.58
2022-08-19T08:07:56.657Z,70.39
2022-08-19T08:08:56.612Z,70.62
2022-08-19T08:09:56.634Z,71.41
2022-08-19T08:11:04.164Z,70.92
2022-08-19T08:11:57.699Z,71.31
2022-08-19T08:13:09.202Z,71.48
2022-08-19T08:14:00.869Z,70.98
2022-08-19T08:14:57.544Z,71.51
2022-08-19T08:15:56.614Z,70.42
2022-08-19T08:16:56.533Z,70.48
2022-08-19T08:17:56.525Z,71.37
2022-08-19T08:18:56.496Z,70.58
2022-08-19T08:19:56.494Z,70.06
2022-08-19T08:20:56.487Z,71.54
2022-08-19T08:21:56.479Z,71.34
2022-08-19T08:22:56.468Z,70.06
2022-08-19T08:23:56.593Z,71.04
2022-08-19T08:24:56.448Z,70.75
2022-08-19T08:25:56.424Z,70.06
2022-08-19T08:26:57.503Z,70.72
2022-08-19T08:27:56.468Z,70.12
2022-08-19T08:28:56.391Z,70.06
2022-08-19T08:29:56.381Z,70.62
2022-08-19T08:30:56.390Z,70.72
2022-08-19T08:31:59.736Z,69.43
2022-08-19T08:32:56.374Z,68.43
2022-08-19T08:33:56.341Z,69.32
2022-08-19T08:34:56.327Z,69.46
2022-08-19T08:35:56.318Z,70.06
2022-08-19T08:36:56.300Z,69.26
2022-08-19T08:37:56.698Z,69.26
2022-08-19T08:39:56.312Z,70.51
2022-08-19T08:40:56.258Z,68.24
2022-08-19T08:41:56.256Z,67.90
2022-08-19T08:42:56.255Z,69.13
2022-08-19T08:43:56.231Z,68.60
2022-08-19T08:45:56.209Z,69.39
2022-08-19T08:46:56.194Z,69.29
2022-08-19T08:47:56.217Z,68.37
2022-08-19T08:48:56.174Z,67.08
2022-08-19T08:49:56.170Z,67.28
2022-08-19T08:50:56.152Z,66.68
2022-08-19T08:51:59.822Z,67.47
2022-08-19T08:52:56.131Z,67.87
2022-08-19T08:53:56.293Z,68.43
2022-08-19T08:54:56.115Z,66.58
2022-08-19T08:55:56.097Z,66.39
2022-08-19T08:56:56.091Z,65.13
2022-08-19T08:57:56.543Z,67.01
2022-08-19T08:58:56.067Z,67.31
2022-08-19T08:59:56.058Z,67.31
2022-08-19T09:00:56.045Z,67.11
2022-08-19T09:01:56.075Z,66.05
2022-08-19T09:02:56.043Z,67.11
2022-08-19T09:03:56.027Z,66.12
2022-08-19T09:04:57.012Z,67.01
2022-08-19T09:05:55.990Z,68.50
2022-08-19T09:06:55.978Z,67.50
2022-08-19T09:07:56.096Z,67.41
2022-08-19T09:08:56.996Z,68.46
2022-08-19T09:09:56.111Z,66.39
2022-08-19T09:10:55.964Z,65.66
2022-08-19T09:11:55.927Z,65.69
2022-08-19T09:12:55.927Z,64.70
2022-08-19T09:13:55.903Z,63.71
2022-08-19T09:14:55.916Z,64.80
2022-08-19T09:15:55.903Z,64.90
2022-08-19T09:16:55.871Z,66.39
2022-08-19T09:17:55.915Z,66.25
2022-08-19T09:18:55.847Z,65.43
2022-08-19T09:19:55.856Z,63.18
2022-08-19T09:20:55.842Z,63.18
2022-08-19T09:21:55.817Z,63.39
2022-08-19T09:22:55.808Z,63.68
2022-08-19T09:23:55.806Z,66.42
2022-08-19T09:24:55.830Z,65.43
2022-08-19T09:25:55.793Z,65.33
2022-08-19T09:26:55.770Z,65.20
2022-08-19T09:27:56.123Z,63.92
2022-08-19T09:28:56.739Z,63.62
2022-08-19T09:29:55.737Z,62.96
2022-08-19T09:30:55.734Z,63.45
2022-08-19T09:31:55.713Z,63.95
2022-08-19T09:32:55.693Z,63.95
2022-08-19T09:33:55.684Z,62.96
2022-08-19T09:34:55.786Z,63.85
2022-08-19T09:35:55.730Z,65.63
2022-08-19T09:36:55.752Z,63.78
2022-08-19T09:37:57.809Z,65.46
2022-08-19T09:38:55.687Z,65.06
2022-08-19T09:39:55.738Z,65.36
2022-08-19T09:40:55.619Z,64.44
2022-08-19T09:41:55.672Z,63.25
2022-08-19T09:42:55.587Z,63.65
2022-08-19T09:43:55.581Z,63.45
2022-08-19T09:44:55.571Z,63.71
2022-08-19T09:45:55.558Z,64.31
2022-08-19T09:46:55.583Z,62.33
2022-08-19T09:47:55.819Z,62.96
2022-08-19T09:48:55.523Z,62.79
2022-08-19T09:49:55.520Z,62.99
2022-08-19T09:50:55.501Z,63.68
2022-08-19T09:51:55.506Z,64.84
2022-08-19T09:52:57.272Z,64.94
2022-08-19T09:53:55.495Z,63.12
2022-08-19T09:54:55.461Z,62.04
2022-08-19T09:55:55.449Z,65.30
2022-08-19T09:56:55.444Z,63.68
2022-08-19T09:57:55.571Z,65.14
2022-08-19T09:58:55.440Z,61.29
2022-08-19T09:59:55.409Z,62.77
2022-08-19T10:00:55.428Z,61.38
2022-08-19T10:01:55.391Z,61.58
2022-08-19T10:02:56.371Z,59.01
2022-08-19T10:03:55.361Z,60.42
2022-08-19T10:04:55.369Z,61.48
2022-08-19T10:05:55.599Z,59.73
2022-08-19T10:06:55.451Z,61.21
2022-08-19T10:07:55.430Z,61.21
2022-08-19T10:08:55.302Z,60.82
2022-08-19T10:09:55.311Z,60.82
2022-08-19T10:10:55.305Z,59.49
2022-08-19T10:11:55.283Z,59.79
2022-08-19T10:12:55.291Z,59.76
2022-08-19T10:13:55.297Z,60.38
2022-08-19T10:14:55.236Z,61.05
2022-08-19T10:15:55.719Z,62.43
2022-08-19T10:16:55.241Z,60.85
2022-08-19T10:17:55.520Z,60.22
2022-08-19T10:18:58.914Z,63.06
2022-08-19T10:19:56.130Z,62.37
2022-08-19T10:20:55.175Z,60.59
2022-08-19T10:21:55.787Z,58.81
2022-08-19T10:22:56.161Z,59.97
2022-08-19T10:23:55.139Z,60.17
2022-08-19T10:24:55.132Z,61.35
2022-08-19T10:25:55.116Z,60.27
2022-08-19T10:26:57.130Z,58.29
2022-08-19T10:27:56.014Z,56.71
2022-08-19T10:28:55.099Z,55.92
2022-08-19T10:29:55.070Z,55.94
2022-08-19T10:30:55.071Z,56.24
2022-08-19T10:32:01.215Z,57.62
2022-08-19T10:32:56.035Z,59.01
2022-08-19T10:33:55.045Z,60.30
2022-08-19T10:34:57.287Z,58.81
2022-08-19T10:35:56.904Z,57.70
2022-08-19T10:36:56.668Z,57.50
2022-08-19T10:37:57.206Z,58.29
2022-08-19T10:38:56.988Z,58.78
2022-08-19T10:39:55.058Z,60.00
2022-08-19T10:40:54.951Z,58.78
2022-08-19T10:41:54.953Z,58.42
2022-08-19T10:42:54.923Z,58.69
2022-08-19T10:43:54.915Z,58.49
2022-08-19T10:44:54.939Z,57.60
2022-08-19T10:45:54.895Z,57.60
2022-08-19T10:46:54.883Z,57.30
2022-08-19T10:47:55.083Z,58.02
2022-08-19T10:48:54.865Z,58.91
2022-08-19T10:49:54.904Z,57.82
2022-08-19T10:50:54.894Z,57.92
2022-08-19T10:51:54.828Z,59.14
2022-08-19T10:52:55.220Z,58.42
2022-08-19T10:53:54.831Z,58.74
2022-08-19T10:54:54.850Z,58.84
2022-08-19T10:55:54.826Z,60.13
2022-08-19T10:56:54.772Z,60.32
2022-08-19T10:58:02.263Z,58.94
2022-08-19T10:58:55.759Z,59.63
2022-08-19T10:59:54.757Z,58.84
2022-08-19T11:00:54.764Z,58.64
2022-08-19T11:01:54.720Z,58.54
2022-08-19T11:02:54.706Z,59.04
2022-08-19T11:03:54.693Z,59.01
2022-08-19T11:04:54.707Z,58.22
2022-08-19T11:05:54.676Z,56.46
2022-08-19T11:06:54.661Z,57.16
2022-08-19T11:07:54.785Z,57.35
2022-08-19T11:08:54.640Z,58.64
2022-08-19T11:09:54.642Z,58.97
2022-08-19T11:10:54.825Z,59.76
2022-08-19T11:11:54.607Z,60.42
2022-08-19T11:12:54.594Z,60.32
2022-08-19T11:13:54.602Z,60.13
2022-08-19T11:14:54.572Z,59.83
2022-08-19T11:15:54.570Z,59.36
2022-08-19T11:16:54.562Z,59.95
2022-08-19T11:17:54.737Z,58.94
2022-08-19T11:18:54.530Z,58.94
2022-08-19T11:19:54.543Z,57.75
2022-08-19T11:20:54.516Z,60.22
2022-08-19T11:21:54.526Z,58.45
2022-08-19T11:22:54.483Z,56.93
2022-08-19T11:23:54.476Z,58.42
2022-08-19T11:24:54.464Z,58.19
2022-08-19T11:25:54.470Z,57.40
2022-08-19T11:26:54.452Z,56.38
2022-08-19T11:27:54.604Z,54.53
2022-08-19T11:28:54.418Z,54.34
2022-08-19T11:29:54.456Z,55.03
2022-08-19T11:30:54.401Z,57.13
2022-08-19T11:31:54.400Z,57.82
2022-08-19T11:32:54.372Z,57.79
2022-08-19T11:33:54.366Z,58.06
2022-08-19T11:34:54.353Z,57.87
2022-08-19T11:35:54.362Z,55.79
2022-08-19T11:36:54.342Z,58.36
2022-08-19T11:37:54.471Z,56.29
2022-08-19T11:38:54.319Z,54.21
2022-08-19T11:39:54.337Z,54.04
2022-08-19T11:40:54.317Z,57.60
2022-08-19T11:41:54.326Z,56.38
2022-08-19T11:42:54.262Z,58.83
2022-08-19T11:43:54.280Z,57.45
2022-08-19T11:44:54.292Z,57.05
2022-08-19T11:45:54.280Z,56.26
2022-08-19T11:46:54.263Z,56.75
2022-08-19T11:47:54.430Z,57.47
2022-08-19T11:48:54.218Z,57.37
2022-08-19T11:49:54.208Z,55.89
2022-08-19T11:50:54.698Z,56.68
2022-08-19T11:51:54.212Z,58.06
2022-08-19T11:52:54.175Z,57.57
2022-08-19T11:53:54.235Z,57.37
2022-08-19T11:54:54.193Z,59.47
2022-08-19T11:55:54.131Z,58.78
2022-08-19T11:56:54.170Z,58.09
2022-08-19T11:57:54.397Z,55.75
2022-08-19T11:58:54.087Z,56.04
2022-08-19T11:59:54.084Z,56.41
2022-08-19T12:00:54.078Z,57.89
2022-08-19T12:01:54.069Z,56.21
2022-08-19T12:02:54.059Z,56.81
2022-08-19T12:03:54.136Z,55.69
2022-08-19T12:04:54.024Z,55.92
2022-08-19T12:05:54.028Z,55.72
2022-08-19T12:06:54.072Z,57.53
2022-08-19T12:07:54.148Z,56.84
2022-08-19T12:08:53.980Z,58.32
2022-08-19T12:09:53.969Z,57.53
2022-08-19T12:10:53.988Z,58.32
2022-08-19T12:11:53.956Z,59.04
2022-08-19T12:12:58.710Z,57.85
2022-08-19T12:13:54.929Z,58.84
2022-08-19T12:14:53.921Z,57.68
2022-08-19T12:15:53.901Z,59.36
2022-08-19T12:16:53.936Z,58.37
2022-08-19T12:17:54.108Z,57.71
2022-08-19T12:18:53.887Z,58.50
2022-08-19T12:19:53.858Z,59.86
2022-08-19T12:20:53.853Z,59.95
2022-08-19T12:21:53.836Z,57.88
2022-08-19T12:22:53.860Z,60.99
2022-08-19T12:23:55.809Z,57.92
2022-08-19T12:24:53.826Z,57.40
2022-08-19T12:25:53.792Z,57.40
2022-08-19T12:26:54.121Z,58.56
2022-08-19T12:27:57.407Z,58.26
2022-08-19T12:28:53.791Z,58.83
2022-08-19T12:29:53.746Z,57.15
2022-08-19T12:30:53.751Z,58.14
2022-08-19T12:31:53.839Z,57.32
2022-08-19T12:32:53.723Z,53.86
2022-08-19T12:33:53.723Z,55.12
2022-08-19T12:34:53.694Z,52.85
2022-08-19T12:35:53.685Z,52.26
2022-08-19T12:36:53.678Z,52.66
2022-08-19T12:37:56.956Z,52.28
2022-08-19T12:38:53.666Z,53.69
2022-08-19T12:39:53.681Z,53.79
2022-08-19T12:40:56.056Z,54.21
2022-08-19T12:41:55.246Z,54.04
2022-08-19T12:42:53.628Z,55.75
2022-08-19T12:43:53.608Z,55.26
2022-08-19T12:44:53.597Z,57.62
2022-08-19T12:45:53.574Z,57.82
2022-08-19T12:46:53.915Z,57.53
2022-08-19T12:47:54.779Z,56.84
2022-08-19T12:48:55.266Z,56.54
2022-08-19T12:49:55.676Z,56.34
2022-08-19T12:50:53.521Z,56.14
2022-08-19T12:51:53.510Z,57.01
2022-08-19T12:52:53.519Z,56.44
2022-08-19T12:53:53.484Z,57.40
2022-08-19T12:54:53.817Z,57.10